Terminal Aerodrome Forecast
Issued by NWS

Home | Current Version | Previous Version | Text Only | Print | Product List | Glossary On
Versions: 1 2 3 4 5 6 7 8 9 10 11 12 13 14 15 16 17 18 19 20
000
FTUS43 KBIS 221700
TAFDIK
TAF
KDIK 221725Z 2218/2318 11004KT P6SM SCT020
     FM222200 12005KT P6SM VCTS SCT050CB
     FM230300 13006KT P6SM SCT070
     FM231400 14015KT P6SM SCT100=

USA.gov is the U.S. government's official web portal to all federal, state and local government web resources and services.